SV1LH-1 Melissia GR current weather conditions

sailwx.info

Wind from 247 at 2 knots gusting 4

Air temperature 15.0° C
Dewpoint 8.9° C

Last reported at 2015-Jan-25 11:50 UTC.
Time now 2015-Jan-25 12:19 UTC

Location: N 38°03' E 023°51'.
View on Google Maps.

See reports from other nearby stations

  
Tides and Currents Weather Stations Pressure Air Temp Water Temp Dewpoint Dewpoint Depression Visibility Wind Speed Wind Dir Waves Ship Positions
date/time (UTC)wind fromknots sea level pressurealtimeterstation pressurevisibilityair tempwater tempwave heightnotes
2015-Jan-25 11:50 247 2 gusting 4 15.0
2015-Jan-25 11:45 292 3 gusting 5 14.4
2015-Jan-25 11:40 270 2 gusting 4 14.4
2015-Jan-25 11:35 225 3 gusting 6 14.4
2015-Jan-25 11:30 292 1 gusting 1 13.9
2015-Jan-25 11:25 315 2 gusting 3 13.9
2015-Jan-25 11:20 247 5 gusting 6 14.4
2015-Jan-25 11:15 270 1 gusting 2 15.0
2015-Jan-25 11:10 270 5 gusting 6 16.1
2015-Jan-25 11:05 247 3 gusting 5 16.7
2015-Jan-25 11:00 270 1 gusting 3 16.1
2015-Jan-25 10:55 247 6 gusting 6 16.1
2015-Jan-25 10:50 247 3 gusting 4 16.1
2015-Jan-25 10:45 270 3 gusting 4 16.1
2015-Jan-25 10:40 270 2 gusting 4 15.6
2015-Jan-25 10:35 225 4 gusting 6 15.6
2015-Jan-25 10:30 180 2 gusting 4 15.0
2015-Jan-25 10:25 270 2 gusting 4 15.0
2015-Jan-25 10:20 270 3 gusting 5 16.1
2015-Jan-25 10:15 225 2 gusting 5 16.1
2015-Jan-25 10:10 225 4 gusting 5 16.7
2015-Jan-25 10:05 225 3 gusting 5 17.8
2015-Jan-25 10:00 180 3 gusting 5 17.2
2015-Jan-25 09:55 270 2 gusting 4 16.7
2015-Jan-25 09:50 270 3 gusting 5 16.7
2015-Jan-25 09:45 225 3 gusting 7 16.7
2015-Jan-25 09:40 247 1 gusting 2 16.1
2015-Jan-25 09:35 225 3 gusting 5 15.6
2015-Jan-25 09:30 225 2 gusting 3 13.9
2015-Jan-25 09:25 135 3 gusting 4 13.3
2015-Jan-25 09:20 270 1 gusting 3 13.9
2015-Jan-25 09:15 180 1 gusting 3 15.0
2015-Jan-25 09:10 202 1 gusting 2 15.0
2015-Jan-25 09:05 247 0 gusting 2 15.6
2015-Jan-25 09:00 202 15.0
2015-Jan-25 08:55 225 0 gusting 1 15.0
2015-Jan-25 08:50 270 1 gusting 2 14.4
2015-Jan-25 08:45 180 0 gusting 1 14.4
2015-Jan-25 08:40 135 14.4
2015-Jan-25 08:35 270 0 gusting 0 15.0
2015-Jan-25 08:30 247 0 gusting 1 15.6
2015-Jan-25 08:25 247 1 gusting 1 15.0
2015-Jan-25 08:20 202 0 gusting 0 13.9
2015-Jan-25 08:15 247 0 gusting 1 13.9
2015-Jan-25 08:10 180 0 gusting 1 13.3
2015-Jan-25 08:05 292 0 gusting 1 13.9
2015-Jan-25 08:00 157 13.9
2015-Jan-25 07:55 180 2 gusting 2 14.4
2015-Jan-25 07:50 180 14.4
2015-Jan-25 07:45 225 13.9
2015-Jan-25 07:40 225 1 gusting 2 12.8
2015-Jan-25 07:35 202 0 gusting 2 12.8
2015-Jan-25 07:30 157 0 gusting 0 11.7
2015-Jan-25 07:25 112 0 gusting 0 10.6
2015-Jan-25 07:20 090 0 gusting 0 10.0
2015-Jan-25 07:15 090 9.4
2015-Jan-25 07:10 090 8.9
2015-Jan-25 07:05 090 8.9
2015-Jan-25 07:00 090 0 gusting 1 8.3
2015-Jan-25 06:55 067 8.3
2015-Jan-25 06:50 090 8.3
2015-Jan-25 06:45 067 8.3
2015-Jan-25 06:40 090 8.3
2015-Jan-25 06:35 090 0 gusting 1 7.8
2015-Jan-25 06:30 022 7.8
2015-Jan-25 06:25 090 7.8
2015-Jan-25 06:20 090 7.8
2015-Jan-25 06:15 090 7.2
2015-Jan-25 06:10 090 7.2
2015-Jan-25 06:05 090 7.2
2015-Jan-25 06:00 067 7.2
2015-Jan-25 05:55 022 0 gusting 1 6.7
2015-Jan-25 05:50 022 6.7
2015-Jan-25 05:45 090 0 gusting 1 6.7
2015-Jan-25 05:40 112 6.7
2015-Jan-25 05:35 067 6.7
2015-Jan-25 05:30 067 7.2
2015-Jan-25 05:25 090 7.2
2015-Jan-25 05:20 7.2
2015-Jan-25 05:15 112 7.2
2015-Jan-25 05:10 112 7.2
2015-Jan-25 05:05 045 7.2
2015-Jan-25 05:00 7.2
2015-Jan-25 04:55 022 1 gusting 1 7.8
2015-Jan-25 04:50 045 7.8
2015-Jan-25 04:45 112 0 gusting 1 7.8
2015-Jan-25 04:40 112 0 gusting 0 7.8
2015-Jan-25 04:35 090 1 gusting 2 7.8
2015-Jan-25 04:30 112 1 gusting 1 7.8
2015-Jan-25 04:25 067 0 gusting 1 7.8
2015-Jan-25 04:20 090 0 gusting 2 7.8
2015-Jan-25 04:15 135 2 gusting 3 8.3
2015-Jan-25 04:10 135 2 gusting 3 7.8
2015-Jan-25 04:05 135 0 gusting 1 7.8
2015-Jan-25 04:00 180 1 gusting 3 7.8
2015-Jan-25 03:55 112 7.8
2015-Jan-25 03:50 090 7.8
2015-Jan-25 03:45 157 0 gusting 1 8.3
2015-Jan-25 03:40 157 2 gusting 3 8.3
2015-Jan-25 03:35 135 1 gusting 1 8.3
2015-Jan-25 03:30 157 8.3
2015-Jan-25 03:25 180 8.3
2015-Jan-25 03:20 135 8.3
2015-Jan-25 03:15 157 1 gusting 3 8.3
2015-Jan-25 03:10 112 0 gusting 1 8.3
2015-Jan-25 03:05 112 0 gusting 1 8.3
2015-Jan-25 03:00 157 1 gusting 2 8.3
2015-Jan-25 02:55 180 0 gusting 1 8.3
2015-Jan-25 02:50 135 0 gusting 1 8.3
2015-Jan-25 02:45 157 0 gusting 0 8.3
2015-Jan-25 02:40 157 1 gusting 2 8.3
2015-Jan-25 02:35 112 0 gusting 2 8.3
2015-Jan-25 02:30 135 0 gusting 1 8.9
2015-Jan-25 02:25 135 0 gusting 1 8.9
2015-Jan-25 02:20 157 2 gusting 3 8.9
2015-Jan-25 02:15 157 0 gusting 1 8.9
2015-Jan-25 02:10 202 8.9
2015-Jan-25 02:05 157 2 gusting 3 8.9
2015-Jan-25 02:00 225 1 gusting 2 8.9
2015-Jan-25 01:55 180 1 gusting 5 8.9
2015-Jan-25 01:50 202 3 gusting 5 8.3
2015-Jan-25 01:45 180 1 gusting 3 8.3
2015-Jan-25 01:40 202 2 gusting 3 8.3
2015-Jan-25 01:35 180 1 gusting 2 8.3
2015-Jan-25 01:30 112 1 gusting 1 8.3
2015-Jan-25 01:25 202 2 gusting 3 8.3
2015-Jan-25 01:20 157 0 gusting 1 8.3
2015-Jan-25 01:15 157 1 gusting 1 8.3
2015-Jan-25 01:10 112 1 gusting 3 8.3
2015-Jan-25 01:05 180 3 gusting 6 8.3
2015-Jan-25 01:00 135 1 gusting 2 8.3
2015-Jan-25 00:55 202 5 gusting 9 8.3
2015-Jan-25 00:50 157 0 gusting 2 8.3
2015-Jan-25 00:45 135 0 gusting 1 8.3
2015-Jan-25 00:40 247 2 gusting 4 8.3
2015-Jan-25 00:35 180 2 gusting 4 8.3
2015-Jan-25 00:30 225 2 gusting 5 8.9
2015-Jan-25 00:25 157 1 gusting 2 8.9
2015-Jan-25 00:20 202 3 gusting 6 8.9
2015-Jan-25 00:15 202 4 gusting 6 8.9
2015-Jan-25 00:10 135 3 gusting 5 8.9
2015-Jan-25 00:05 067 1 gusting 3 8.9
2015-Jan-25 00:00 202 5 gusting 6 8.9
2015-Jan-24 23:55 157 4 gusting 6 8.9
2015-Jan-24 23:50 225 3 gusting 5 8.9
2015-Jan-24 23:45 157 3 gusting 6 8.9
2015-Jan-24 23:40 202 1 gusting 3 8.9
2015-Jan-24 23:35 225 1 gusting 2 8.9
2015-Jan-24 23:30 202 1 gusting 3 8.3
2015-Jan-24 23:25 045 8.3
2015-Jan-24 23:20 112 0 gusting 1 8.3
2015-Jan-24 23:15 180 8.3
2015-Jan-24 23:10 090 1 gusting 2 8.3
2015-Jan-24 23:05 112 1 gusting 2 8.3
2015-Jan-24 23:00 135 2 gusting 3 8.9
2015-Jan-24 22:55 135 1 gusting 3 8.9
2015-Jan-24 22:50 135 1 gusting 3 8.9
2015-Jan-24 22:45 180 3 gusting 5 8.9
2015-Jan-24 22:40 157 4 gusting 5 8.9
2015-Jan-24 22:35 180 3 gusting 6 8.9
2015-Jan-24 22:30 157 2 gusting 5 8.9
2015-Jan-24 22:25 202 1 gusting 3 8.9
2015-Jan-24 22:20 180 1 gusting 2 8.9
2015-Jan-24 22:15 135 3 gusting 4 8.3
2015-Jan-24 22:10 135 2 gusting 4 8.3
2015-Jan-24 22:05 157 3 gusting 6 8.3
2015-Jan-24 22:00 112 2 gusting 4 8.3
2015-Jan-24 21:55 112 1 gusting 2 8.3
2015-Jan-24 21:50 135 4 gusting 6 8.3
2015-Jan-24 21:45 157 3 gusting 5 8.3
2015-Jan-24 21:40 180 2 gusting 4 8.3
2015-Jan-24 21:35 090 2 gusting 3 8.3
2015-Jan-24 21:30 157 1 gusting 3 8.3
2015-Jan-24 21:25 180 3 gusting 5 8.3
2015-Jan-24 21:20 112 0 gusting 1 8.3
2015-Jan-24 21:15 180 0 gusting 1 8.3
2015-Jan-24 21:10 112 0 gusting 1 8.3
2015-Jan-24 21:05 202 1 gusting 5 8.9
2015-Jan-24 21:00 135 2 gusting 6 8.9
2015-Jan-24 20:55 202 5 gusting 11 8.3
2015-Jan-24 20:50 202 4 gusting 7 8.3
2015-Jan-24 20:45 180 4 gusting 6 8.3
2015-Jan-24 20:40 202 3 gusting 5 8.3
2015-Jan-24 20:35 180 8.3
2015-Jan-24 20:30 180 1 gusting 2 8.3
2015-Jan-24 20:25 225 1 gusting 3 8.3
2015-Jan-24 20:20 180 4 gusting 8 8.3
2015-Jan-24 20:15 202 2 gusting 5 7.8
2015-Jan-24 20:10 202 2 gusting 4 7.8
2015-Jan-24 20:05 112 1 gusting 4 7.8
2015-Jan-24 20:00 202 1 gusting 2 7.8
2015-Jan-24 19:55 157 2 gusting 5 7.2
2015-Jan-24 19:50 112 1 gusting 2 7.2
2015-Jan-24 19:45 135 1 gusting 3 7.2
2015-Jan-24 19:40 067 1 gusting 2 7.2
2015-Jan-24 19:35 090 0 gusting 1 7.2
2015-Jan-24 19:30 112 1 gusting 1 7.2
2015-Jan-24 19:25 090 0 gusting 0 7.2
2015-Jan-24 19:20 202 7.2
2015-Jan-24 19:15 225 0 gusting 1 7.2
2015-Jan-24 19:10 135 1 gusting 2 7.2
2015-Jan-24 19:05 135 2 gusting 4 7.2
2015-Jan-24 19:00 112 1 gusting 2 7.2
2015-Jan-24 18:55 135 2 gusting 3 7.2
2015-Jan-24 18:50 157 1 gusting 2 7.2
2015-Jan-24 18:45 157 7.2
2015-Jan-24 18:40 135 1 gusting 2 7.2
2015-Jan-24 18:35 090 1 gusting 3 7.2
2015-Jan-24 18:30 202 2 gusting 6 7.2
2015-Jan-24 18:25 180 2 gusting 3 7.2
2015-Jan-24 18:20 157 0 gusting 1 7.2
2015-Jan-24 18:15 225 2 gusting 4 7.2
2015-Jan-24 18:10 7.2
2015-Jan-24 18:05 202 3 gusting 5 7.8
2015-Jan-24 18:00 270 0 gusting 1 7.8
2015-Jan-24 17:55 180 0 gusting 2 7.8
2015-Jan-24 17:50 157 6 gusting 15 8.3
2015-Jan-24 17:45 180 3 gusting 6 8.9
2015-Jan-24 17:40 180 3 gusting 6 8.9
2015-Jan-24 17:35 247 6 gusting 10 8.9
2015-Jan-24 17:30 202 4 gusting 6 8.9
2015-Jan-24 17:25 135 2 gusting 3 8.9
2015-Jan-24 17:20 157 1 gusting 2 8.9
2015-Jan-24 17:15 157 1 gusting 2 8.9
2015-Jan-24 17:10 157 2 gusting 4 8.9
2015-Jan-24 17:05 157 3 gusting 5 8.9
2015-Jan-24 17:00 157 2 gusting 3 8.9
2015-Jan-24 16:55 157 2 gusting 5 8.3
2015-Jan-24 16:50 157 2 gusting 3 8.3
2015-Jan-24 16:45 180 3 gusting 5 8.3
2015-Jan-24 16:40 157 0 gusting 2 8.3
2015-Jan-24 16:35 180 2 gusting 4 8.3
2015-Jan-24 16:30 157 0 gusting 1 8.3
2015-Jan-24 16:25 090 0 gusting 1 8.3
2015-Jan-24 16:20 135 8.3
2015-Jan-24 16:15 135 8.3
2015-Jan-24 16:10 135 1 gusting 4 8.3
2015-Jan-24 16:05 270 1 gusting 3 8.3
2015-Jan-24 16:00 180 0 gusting 1 8.3
2015-Jan-24 15:55 180 2 gusting 3 8.9
2015-Jan-24 15:50 202 3 gusting 4 8.9
2015-Jan-24 15:45 135 8.9
2015-Jan-24 15:40 135 8.9
2015-Jan-24 15:35 112 0 gusting 1 8.9
2015-Jan-24 15:30 090 0 gusting 1 8.9
2015-Jan-24 15:25 180 1 gusting 2 9.4
2015-Jan-24 15:20 180 0 gusting 1 9.4
2015-Jan-24 15:15 225 0 gusting 2 9.4
2015-Jan-24 15:10 157 1 gusting 3 9.4
2015-Jan-24 15:05 157 0 gusting 1 9.4
2015-Jan-24 15:00 247 9.4
2015-Jan-24 14:55 292 0 gusting 2 9.4
2015-Jan-24 14:50 202 1 gusting 3 9.4
2015-Jan-24 14:45 180 2 gusting 4 10.0
2015-Jan-24 14:40 270 0 gusting 1 10.0
2015-Jan-24 14:35 247 4 gusting 6 10.0
2015-Jan-24 14:30 270 2 gusting 3 10.0
2015-Jan-24 14:25 225 2 gusting 5 10.0
2015-Jan-24 14:20 270 2 gusting 5 10.0
2015-Jan-24 14:15 225 3 gusting 6 10.0
2015-Jan-24 14:10 180 2 gusting 4 10.0
2015-Jan-24 14:05 10.0
2015-Jan-24 14:00 270 3 gusting 6 10.0
2015-Jan-24 13:55 202 3 gusting 5 10.0
2015-Jan-24 13:50 225 5 gusting 9 10.0
2015-Jan-24 13:45 157 3 gusting 6 10.6
2015-Jan-24 13:40 157 1 gusting 4 10.6
2015-Jan-24 13:35 225 3 gusting 6 10.6
2015-Jan-24 13:30 247 3 gusting 9 11.1
2015-Jan-24 13:25 247 2 gusting 4 11.1
2015-Jan-24 13:20 247 4 gusting 6 11.1
2015-Jan-24 13:15 225 3 gusting 7 10.6
2015-Jan-24 13:10 225 2 gusting 5 10.6
2015-Jan-24 13:05 157 4 gusting 6 10.6
2015-Jan-24 13:00 270 2 gusting 5 10.6
2015-Jan-24 12:55 270 0 gusting 2 11.1
2015-Jan-24 12:50 270 5 gusting 6 11.1
2015-Jan-24 12:45 247 1 gusting 2 11.1
2015-Jan-24 12:40 202 2 gusting 3 11.1
2015-Jan-24 12:35 225 1 gusting 2 11.1
2015-Jan-24 12:30 180 2 gusting 3 11.1
2015-Jan-24 12:25 202 0 gusting 1 11.1
2015-Jan-24 12:20 180 2 gusting 3 11.7
2015-Jan-24 12:15 157 1 gusting 2 11.1
2015-Jan-24 12:10 112 0 gusting 1 11.1
2015-Jan-24 12:05 180 11.1
2015-Jan-24 12:00 067 11.7
2015-Jan-24 11:55 270 11.7
2015-Jan-24 11:50 11.1
2015-Jan-24 11:45 090 10.6
2015-Jan-24 11:40 045 0 gusting 1 10.0
2015-Jan-24 11:35 270 10.0
2015-Jan-24 11:30 9.4
2015-Jan-24 11:25 315 1 gusting 2 9.4
2015-Jan-24 11:20 292 0 gusting 2 9.4
2015-Jan-24 11:15 292 3 gusting 5 9.4
2015-Jan-24 11:10 292 2 gusting 3 10.0
2015-Jan-24 11:05 292 4 gusting 5 10.0
2015-Jan-24 11:00 292 2 gusting 4 10.6
2015-Jan-24 10:55 270 0 gusting 1 10.6
2015-Jan-24 10:50 270 10.6
2015-Jan-24 10:45 247 1 gusting 3 10.6
2015-Jan-24 10:40 270 1 gusting 4 10.6
2015-Jan-24 10:35 270 2 gusting 4 10.6
2015-Jan-24 10:30 270 0 gusting 2 10.0
2015-Jan-24 10:25 270 1 gusting 2 9.4
2015-Jan-24 10:20 225 1 gusting 2 9.4
2015-Jan-24 10:15 180 0 gusting 1 9.4
2015-Jan-24 10:10 202 1 gusting 1 9.4
2015-Jan-24 10:05 180 2 gusting 3 9.4
2015-Jan-24 10:00 180 2 gusting 3 9.4
2015-Jan-24 09:55 225 2 gusting 5 9.4
2015-Jan-24 09:50 225 4 gusting 9 9.4
2015-Jan-24 09:45 202 2 gusting 2 10.0
2015-Jan-24 09:40 225 3 gusting 4 10.0
2015-Jan-24 09:35 247 2 gusting 3 10.0
2015-Jan-24 09:30 247 3 gusting 6 10.0
2015-Jan-24 09:25 270 2 gusting 3 10.0
2015-Jan-24 09:20 225 2 gusting 5 10.0
2015-Jan-24 09:15 270 1 gusting 3 10.6
2015-Jan-24 09:10 180 1 gusting 4 10.6
2015-Jan-24 09:05 225 2 gusting 4 10.6
2015-Jan-24 09:00 202 3 gusting 5 10.6
2015-Jan-24 08:55 225 3 gusting 6 10.6
2015-Jan-24 08:50 270 2 gusting 6 10.6
2015-Jan-24 08:45 247 4 gusting 6 10.6
2015-Jan-24 08:40 202 5 gusting 8 10.6
2015-Jan-24 08:35 225 3 gusting 4 11.1
2015-Jan-24 08:30 225 11.1
2015-Jan-24 08:25 270 11.7
2015-Jan-24 08:20 247 1 gusting 3 12.2
2015-Jan-24 08:15 292 2 gusting 3 12.8
2015-Jan-24 08:10 225 1 gusting 2 13.9
2015-Jan-24 08:05 315 0 gusting 2 15.0
2015-Jan-24 08:00 157 0 gusting 5 15.6
2015-Jan-24 07:55 247 0 gusting 1 15.6
2015-Jan-24 07:50 292 2 gusting 4 16.1
2015-Jan-24 07:45 292 0 gusting 3 16.7
2015-Jan-24 07:40 315 0 gusting 0 16.1
2015-Jan-24 07:35 225 16.1
2015-Jan-24 07:30 247 16.1
2015-Jan-24 07:25 112 15.0
2015-Jan-24 07:20 180 14.4
2015-Jan-24 07:15 180 13.9
2015-Jan-24 07:10 157 13.3
2015-Jan-24 07:05 157 12.8
2015-Jan-24 07:00 180 11.7
2015-Jan-24 06:55 135 11.1
2015-Jan-24 06:50 135 0 gusting 0 10.0
2015-Jan-24 06:45 090 2 gusting 3 10.0
2015-Jan-24 05:50 180 0 gusting 2 5.6
2015-Jan-24 05:45 112 5.6
2015-Jan-24 05:40 135 0 gusting 1 5.6
2015-Jan-24 05:35 090 1 gusting 1 5.6
2015-Jan-24 05:30 135 5.6
2015-Jan-24 05:25 135 5.6
2015-Jan-24 05:20 112 5.6
2015-Jan-24 05:15 090 5.6
2015-Jan-24 05:10 292 5.6
2015-Jan-24 05:05 5.6
2015-Jan-24 05:00 022 6.1
2015-Jan-24 04:55 090 6.1
2015-Jan-24 04:50 090 6.1
2015-Jan-24 04:45 090 5.6
2015-Jan-24 04:40 180 5.6
2015-Jan-24 04:35 337 5.6
2015-Jan-24 04:30 045 5.6
2015-Jan-24 04:25 090 5.6
2015-Jan-24 04:20 022 6.1
2015-Jan-24 04:15 315 6.1
2015-Jan-24 04:10 292 6.1
2015-Jan-24 04:05 6.1
2015-Jan-24 04:00 337 0 gusting 1 6.1
2015-Jan-24 03:55 337 5.6
2015-Jan-24 03:50 5.6
2015-Jan-24 03:45 315 5.6
2015-Jan-24 03:40 5.6
2015-Jan-24 03:35 5.6
2015-Jan-24 03:30 5.6
2015-Jan-24 03:25 135 5.6
2015-Jan-24 03:20 135 5.6
2015-Jan-24 03:15 022 5.6
2015-Jan-24 03:10 022 5.6
2015-Jan-24 03:05 022 6.1
2015-Jan-24 03:00 6.1
2015-Jan-24 02:55 337 6.1
2015-Jan-24 02:50 315 6.7
2015-Jan-24 02:45 315 6.7
2015-Jan-24 02:40 315 1 gusting 3 6.7
2015-Jan-24 02:35 7.2
2015-Jan-24 02:30 292 0 gusting 1 7.2
2015-Jan-24 02:25 292 7.2
2015-Jan-24 02:20 292 7.2
2015-Jan-24 02:15 6.7
2015-Jan-24 02:10 6.7
2015-Jan-24 02:05 6.7
2015-Jan-24 02:00 6.7
2015-Jan-24 01:55 045 6.7
2015-Jan-24 01:50 090 6.7
2015-Jan-24 01:45 112 6.7
2015-Jan-24 01:40 045 6.7
2015-Jan-24 01:35 045 6.7
2015-Jan-24 01:30 045 6.7
2015-Jan-24 01:25 045 7.2
2015-Jan-24 01:20 045 7.2
2015-Jan-24 01:15 112 7.2
2015-Jan-24 01:10 090 1 gusting 1 7.2
2015-Jan-24 01:05 090 1 gusting 1 7.2
2015-Jan-24 01:00 112 1 gusting 1 7.2
2015-Jan-24 00:55 112 1 gusting 1 7.2
2015-Jan-24 00:50 090 0 gusting 1 7.2
2015-Jan-24 00:45 090 0 gusting 1 7.2
2015-Jan-24 00:40 112 0 gusting 1 7.2
2015-Jan-24 00:35 090 0 gusting 1 7.2
2015-Jan-24 00:30 090 7.2
2015-Jan-24 00:25 090 0 gusting 1 7.2
2015-Jan-24 00:20 112 0 gusting 0 6.7
2015-Jan-24 00:15 135 6.7
2015-Jan-24 00:10 135 6.7
2015-Jan-24 00:05 112 6.7
2015-Jan-24 00:00 135 6.7
2015-Jan-23 23:55 157 0 gusting 0 6.7
2015-Jan-23 23:50 067 0 gusting 1 6.7
2015-Jan-23 23:45 112 0 gusting 1 6.7
2015-Jan-23 23:40 180 0 gusting 1 6.7
2015-Jan-23 23:35 135 1 gusting 2 6.7
2015-Jan-23 23:30 067 0 gusting 1 6.7
2015-Jan-23 23:25 112 6.7
2015-Jan-23 23:20 112 6.7
2015-Jan-23 23:15 315 6.7
2015-Jan-23 23:10 022 6.7
2015-Jan-23 23:05 112 0 gusting 1 6.7
2015-Jan-23 23:00 090 6.7
2015-Jan-23 22:55 112 6.7
2015-Jan-23 22:50 045 0 gusting 0 6.7
2015-Jan-23 22:45 090 6.7
2015-Jan-23 22:40 202 1 gusting 3 6.7
2015-Jan-23 22:35 090 4 gusting 6 6.7
2015-Jan-23 22:30 045 1 gusting 2 6.7
2015-Jan-23 22:25 045 6.7
2015-Jan-23 22:20 270 6.7
2015-Jan-23 22:15 315 7.2
2015-Jan-23 22:10 045 7.2
2015-Jan-23 22:05 247 1 gusting 2 7.2
2015-Jan-23 22:00 270 2 gusting 3 7.2
2015-Jan-23 21:55 270 5 gusting 7 7.2
2015-Jan-23 21:50 270 3 gusting 6 7.2
2015-Jan-23 21:45 202 4 gusting 6 7.8
2015-Jan-23 21:40 270 4 gusting 8 7.8
2015-Jan-23 21:35 337 5 gusting 9 7.8
2015-Jan-23 21:30 247 5 gusting 9 8.3
2015-Jan-23 21:25 225 1 gusting 4 8.3
2015-Jan-23 21:20 112 2 gusting 3 8.3
2015-Jan-23 21:15 225 8.3
2015-Jan-23 21:10 225 8.3
2015-Jan-23 21:05 157 1 gusting 2 8.3
2015-Jan-23 21:00 135 2 gusting 3 8.3
2015-Jan-23 20:55 090 3 gusting 4 8.3
2015-Jan-23 20:50 090 1 gusting 2 8.3
2015-Jan-23 20:45 090 3 gusting 3 8.3
2015-Jan-23 20:40 067 1 gusting 2 8.3
2015-Jan-23 20:35 112 8.3
2015-Jan-23 20:30 202 1 gusting 2 8.3
2015-Jan-23 20:25 202 2 gusting 3 8.3
2015-Jan-23 20:20 202 1 gusting 2 8.3
2015-Jan-23 20:15 180 0 gusting 2 8.3
2015-Jan-23 20:10 157 1 gusting 2 8.3
2015-Jan-23 20:05 112 1 gusting 2 8.3
2015-Jan-23 20:00 112 1 gusting 1 8.3
2015-Jan-23 19:55 067 8.3
2015-Jan-23 19:50 090 2 gusting 3 8.3
2015-Jan-23 19:45 090 2 gusting 3 8.3
2015-Jan-23 19:40 8.3
2015-Jan-23 19:35 292 8.3
2015-Jan-23 19:30 022 1 gusting 2 8.3
2015-Jan-23 19:25 022 0 gusting 1 8.3
2015-Jan-23 19:20 8.3
2015-Jan-23 19:15 315 0 gusting 1 8.3
2015-Jan-23 19:10 292 0 gusting 1 8.3
2015-Jan-23 19:05 247 0 gusting 1 8.3
2015-Jan-23 19:00 8.3
2015-Jan-23 18:55 045 8.3
2015-Jan-23 18:50 090 8.9
2015-Jan-23 18:45 112 8.9
2015-Jan-23 18:40 225 1 gusting 2 8.9
2015-Jan-23 18:35 225 9.4
2015-Jan-23 18:30 247 9.4
2015-Jan-23 18:25 247 9.4
2015-Jan-23 18:20 067 9.4
2015-Jan-23 18:15 9.4
2015-Jan-23 18:10 337 9.4
2015-Jan-23 18:05 045 0 gusting 1 10.0
2015-Jan-23 18:00 315 0 gusting 2 10.0
2015-Jan-23 17:55 157 10.0
2015-Jan-23 17:50 10.0
2015-Jan-23 17:45 315 3 gusting 4 10.0
2015-Jan-23 17:40 270 1 gusting 3 10.0
2015-Jan-23 17:35 067 10.0
2015-Jan-23 17:30 247 0 gusting 2 10.6
2015-Jan-23 17:25 247 2 gusting 4 10.6
2015-Jan-23 17:20 270 4 gusting 6 10.6
2015-Jan-23 17:15 270 5 gusting 6 10.6
2015-Jan-23 17:10 270 0 gusting 1 10.6
2015-Jan-23 17:05 247 2 gusting 4 11.1
2015-Jan-23 17:00 292 6 gusting 8 11.1
2015-Jan-23 16:55 315 8 gusting 13 11.7
2015-Jan-23 16:50 337 5 gusting 8 12.2
2015-Jan-23 16:45 202 3 gusting 5 11.7
2015-Jan-23 16:40 112 2 gusting 4 11.7
2015-Jan-23 16:35 202 6 gusting 12 11.7
2015-Jan-23 16:30 247 3 gusting 5 11.7
2015-Jan-23 16:25 225 6 gusting 10 11.7
2015-Jan-23 16:20 247 3 gusting 5 11.7
2015-Jan-23 16:15 225 4 gusting 7 11.1
2015-Jan-23 16:10 247 3 gusting 6 11.1
2015-Jan-23 16:05 135 10.6
2015-Jan-23 16:00 180 10.6
2015-Jan-23 15:55 202 0 gusting 2 10.6
2015-Jan-23 15:50 045 1 gusting 3 10.6
2015-Jan-23 15:45 180 10.6
2015-Jan-23 15:40 112 0 gusting 2 11.1
2015-Jan-23 15:35 11.1
2015-Jan-23 15:30 090 0 gusting 1 11.1
2015-Jan-23 15:25 225 1 gusting 3 11.7
2015-Jan-23 15:20 067 11.7
2015-Jan-23 15:15 202 2 gusting 3 11.7
2015-Jan-23 15:10 202 4 gusting 6 12.2
2015-Jan-23 15:05 180 1 gusting 4 12.2
2015-Jan-23 15:00 180 5 gusting 6 12.8
2015-Jan-23 14:55 157 1 gusting 2 13.3
2015-Jan-23 14:50 157 4 gusting 6 13.9
2015-Jan-23 14:45 157 5 gusting 8 14.4
2015-Jan-23 14:40 180 2 gusting 5 14.4
2015-Jan-23 14:35 202 5 gusting 7 15.0
2015-Jan-23 14:30 157 5 gusting 8 15.0
2015-Jan-23 14:25 225 6 gusting 9 15.0
2015-Jan-23 14:20 180 6 gusting 7 15.6
2015-Jan-23 14:15 135 2 gusting 6 15.6
2015-Jan-23 14:10 180 5 gusting 6 16.1
2015-Jan-23 14:05 157 4 gusting 6 16.1
2015-Jan-23 14:00 180 4 gusting 6 16.7
2015-Jan-23 13:55 16.7
2015-Jan-23 13:50 202 5 gusting 8 16.7
2015-Jan-23 13:45 247 6 gusting 10 16.7
2015-Jan-23 13:40 180 5 gusting 6 17.2
2015-Jan-23 13:35 180 6 gusting 9 17.2
2015-Jan-23 13:30 225 3 gusting 4 17.2
2015-Jan-23 13:25 202 4 gusting 6 17.2
2015-Jan-23 13:20 112 3 gusting 7 17.2
2015-Jan-23 13:15 135 4 gusting 6 17.2
2015-Jan-23 13:10 157 5 gusting 8 17.2
2015-Jan-23 13:05 180 7 gusting 10 17.2
2015-Jan-23 13:00 157 6 gusting 11 17.2
2015-Jan-23 12:55 247 6 gusting 8 17.2
2015-Jan-23 12:50 225 6 gusting 8 17.2
2015-Jan-23 12:45 202 5 gusting 7 17.2
2015-Jan-23 12:40 225 6 gusting 12 17.8
2015-Jan-23 12:35 157 6 gusting 12 17.2
2015-Jan-23 12:30 090 5 gusting 9 17.8
2015-Jan-23 12:25 180 6 gusting 8 17.8
2015-Jan-23 12:20 157 5 gusting 8 17.8
2015-Jan-23 12:15 157 4 gusting 6 17.8
2015-Jan-23 12:10 225 6 gusting 8 17.8
2015-Jan-23 12:05 202 7 gusting 11 18.3
2015-Jan-23 12:00 202 4 gusting 7 18.3